»·PEaware :: DAL1092 KSNA-KLAS

DAL1092 :: KSNA-KLAS

FLIGHT INFORMATION

Flight Status: Arrived
Operator:
Delta Air Lines
More flights by this operator :: More flights under this callsign
Pilot: Ryan B. (8502)
Aircraft: BOEING 737-800
(B738)
More flights by this aircraft type
Origin: KSNA John Wayne-Orange Co
United States
Destination: KLAS McCarran Intl
United States
More flights between these airports :: More routes between these airports
Route: FINZZ1 MISEN KEPEC4
File this flight plan on PilotEdge
Remarks:
Altitude:
(Current/Filed)
29,000ft
Speed:
(Current/Filed)
403kts
Departed: 18-Jul-17 08:31 PM
Arrived: 18-Jul-17 09:16 PM
Distance/Time
Traveled:
197nm/0:45
Distance/Time
To Go:
Arrived

Flight Plot

Page will automatically refresh every two minutes.

Flight plan parsing failed; only flown route is shown


Map Options




Map Legend


Flown Route
Filed Route
Departure Airport
Arrival Airport
Navaid (VOR, NDB)
Fix

Horizontal Profiles

Position Reports

Time Latitude Longitude Heading Altitude Ground
Speed
18-Jul-17 20:13 33.682426 -117.860407 117 64ft 0kts
18-Jul-17 20:14 33.682426 -117.860407 117 64ft 0kts
18-Jul-17 20:15 33.682426 -117.860407 117 64ft 0kts
18-Jul-17 20:16 33.682426 -117.860407 117 64ft 0kts
18-Jul-17 20:17 33.682426 -117.860407 117 64ft 0kts
18-Jul-17 20:18 33.682426 -117.860407 117 64ft 0kts
18-Jul-17 20:19 33.682426 -117.860407 117 64ft 0kts
18-Jul-17 20:20 33.682426 -117.860407 117 64ft 0kts
18-Jul-17 20:21 33.682426 -117.860407 117 64ft 0kts
18-Jul-17 20:22 33.682426 -117.860407 117 64ft 0kts
18-Jul-17 20:23 33.682426 -117.860407 117 64ft 0kts
18-Jul-17 20:24 33.682426 -117.860407 117 64ft 0kts
18-Jul-17 20:25 33.682426 -117.860407 117 64ft 0kts
18-Jul-17 20:26 33.682426 -117.860407 117 64ft 0kts
18-Jul-17 20:27 33.682426 -117.860407 117 64ft 0kts
18-Jul-17 20:28 33.682559 -117.860720 116 64ft 3kts
18-Jul-17 20:29 33.682641 -117.860914 116 64ft 0kts
18-Jul-17 20:30 33.682641 -117.860914 116 64ft 0kts
18-Jul-17 20:31 33.682385 -117.860847 218 64ft 4kts
18-Jul-17 20:32 33.680523 -117.862648 258 64ft 5kts
18-Jul-17 20:33 33.681458 -117.865069 256 64ft 8kts
18-Jul-17 20:34 33.678570 -117.867031 207 64ft 82kts
18-Jul-17 20:35 33.644739 -117.885998 191 1877ft 152kts
18-Jul-17 20:36 33.596806 -117.894774 190 4164ft 206kts
18-Jul-17 20:37 33.542467 -117.933235 223 7089ft 264kts
18-Jul-17 20:38 33.502775 -118.004480 272 10848ft 275kts
18-Jul-17 20:39 33.545291 -118.084194 314 13195ft 332kts
18-Jul-17 20:40 33.634910 -118.103854 20 16556ft 363kts
18-Jul-17 20:41 33.728552 -118.048865 24 18985ft 404kts
18-Jul-17 20:42 33.829132 -117.990014 25 22688ft 400kts
18-Jul-17 20:43 33.927958 -117.924236 35 24959ft 423kts
18-Jul-17 20:44 34.023092 -117.838050 37 27330ft 437kts
18-Jul-17 20:45 34.113354 -117.740850 50 29011ft 452kts
18-Jul-17 20:46 34.195285 -117.620422 51 29013ft 480kts
18-Jul-17 20:47 34.278911 -117.495959 51 29010ft 478kts
18-Jul-17 20:48 34.362211 -117.371516 51 29047ft 479kts
18-Jul-17 20:49 34.445192 -117.247107 52 29046ft 479kts
18-Jul-17 20:50 34.528279 -117.122078 52 29049ft 479kts
18-Jul-17 20:51 34.611036 -117.001023 52 29006ft 461kts
18-Jul-17 20:52 34.693776 -116.880149 52 28935ft 470kts
18-Jul-17 20:53 34.777097 -116.757977 52 28927ft 471kts
18-Jul-17 20:54 34.862433 -116.638306 41 28908ft 473kts
18-Jul-17 20:55 34.965108 -116.537367 39 28936ft 483kts
18-Jul-17 20:56 35.070187 -116.435105 39 28967ft 489kts
18-Jul-17 20:57 35.156842 -116.335524 46 28916ft 457kts
18-Jul-17 20:58 35.239007 -116.232642 46 26533ft 437kts
18-Jul-17 20:59 35.321345 -116.129097 46 23565ft 416kts
18-Jul-17 21:00 35.399963 -116.029888 46 20591ft 402kts
18-Jul-17 21:01 35.475616 -115.934166 46 18139ft 387kts
18-Jul-17 21:02 35.546995 -115.843597 46 15872ft 374kts
18-Jul-17 21:03 35.617699 -115.753632 46 13539ft 361kts
18-Jul-17 21:04 35.682348 -115.671237 46 13006ft 316kts
18-Jul-17 21:05 35.744837 -115.593703 34 13006ft 323kts
18-Jul-17 21:06 35.831208 -115.572620 2 13020ft 321kts
18-Jul-17 21:07 35.920235 -115.566576 1 12996ft 321kts
18-Jul-17 21:08 35.972888 -115.532336 56 12764ft 293kts
18-Jul-17 21:09 36.007677 -115.444398 68 11125ft 292kts
18-Jul-17 21:10 36.027871 -115.351592 94 11027ft 285kts
18-Jul-17 21:11 36.022224 -115.256784 97 9771ft 279kts
18-Jul-17 21:12 36.015796 -115.163610 96 8997ft 254kts
18-Jul-17 21:13 36.009919 -115.078245 93 8049ft 244kts
18-Jul-17 21:14 36.005598 -115.006542 96 7443ft 190kts
18-Jul-17 21:15 36.025947 -114.964577 351 5841ft 168kts
18-Jul-17 21:16 36.063893 -114.995782 314 4413ft 162kts
18-Jul-17 21:17 36.073446 -115.038746 271 3512ft 159kts
18-Jul-17 21:18 36.073622 -115.097331 267 2524ft 140kts
18-Jul-17 21:19 36.073658 -115.142177 270 2092ft 37kts
18-Jul-17 21:20 36.074395 -115.145243 295 2101ft 16kts
18-Jul-17 21:21 36.077627 -115.146834 327 2102ft 14kts
18-Jul-17 21:22 36.078244 -115.142947 91 2087ft 18kts
18-Jul-17 21:23 36.079821 -115.139530 353 2073ft 0kts

Navigation Log

Ident Type
Flight plan parsing failed, navigation log unavailable